createdAt,value
2018-07-25T00:02:24.795Z,13.07
2018-07-25T00:04:55.763Z,13.35
2018-07-25T00:07:29.955Z,12.67
2018-07-25T00:09:59.649Z,12.40
2018-07-25T00:12:30.912Z,12.77
2018-07-25T00:15:03.172Z,11.57
2018-07-25T00:17:33.166Z,11.40
2018-07-25T00:20:04.511Z,11.40
2018-07-25T00:22:35.691Z,10.40
2018-07-25T00:25:06.215Z,11.17
2018-07-25T00:27:34.773Z,10.70
2018-07-25T00:30:03.429Z,9.73
2018-07-25T00:32:32.147Z,10.87
2018-07-25T00:35:00.818Z,9.80
2018-07-25T00:37:33.996Z,10.13
2018-07-25T00:40:05.387Z,10.23
2018-07-25T00:42:36.398Z,9.53
2018-07-25T00:45:07.813Z,10.20
2018-07-25T00:47:38.224Z,9.37
2018-07-25T00:50:08.810Z,10.17
2018-07-25T00:52:39.852Z,10.30
2018-07-25T00:55:09.890Z,11.60
2018-07-25T00:57:38.690Z,11.40
2018-07-25T01:00:06.888Z,11.57
2018-07-25T01:02:35.499Z,11.40
2018-07-25T01:05:04.672Z,10.83
2018-07-25T01:07:33.198Z,11.53
2018-07-25T01:10:02.231Z,10.67
2018-07-25T01:12:32.678Z,11.03
2018-07-25T01:15:01.164Z,12.53
2018-07-25T01:17:29.625Z,18.23
2018-07-25T01:19:58.449Z,14.83
2018-07-25T01:22:30.524Z,14.20
2018-07-25T01:25:04.034Z,12.20
2018-07-25T01:27:32.602Z,11.53
2018-07-25T01:30:03.297Z,11.63
2018-07-25T01:32:33.489Z,10.37
2018-07-25T01:35:03.349Z,10.63
2018-07-25T01:37:33.243Z,9.60
2018-07-25T01:40:03.681Z,10.20
2018-07-25T01:42:35.439Z,10.27
2018-07-25T01:45:07.295Z,9.83
2018-07-25T01:47:38.408Z,9.93
2018-07-25T01:50:13.288Z,9.63
2018-07-25T01:52:43.472Z,9.23
2018-07-25T01:55:17.353Z,9.33
2018-07-25T01:57:48.625Z,9.20
2018-07-25T02:00:18.281Z,8.90
2018-07-25T02:02:54.311Z,9.40
2018-07-25T02:05:23.002Z,9.57
2018-07-25T02:07:59.506Z,9.43
2018-07-25T02:10:28.160Z,9.30
2018-07-25T02:12:58.117Z,8.90
2018-07-25T02:15:27.329Z,9.30
2018-07-25T02:17:59.925Z,9.13
2018-07-25T02:20:28.457Z,8.90
2018-07-25T02:22:58.932Z,9.03
2018-07-25T02:25:28.774Z,9.10
2018-07-25T02:28:01.082Z,8.53
2018-07-25T02:30:31.898Z,9.20
2018-07-25T02:33:02.346Z,8.80
2018-07-25T02:35:31.753Z,9.00
2018-07-25T02:38:01.093Z,8.97
2018-07-25T02:40:30.308Z,9.17
2018-07-25T02:42:59.841Z,9.60
2018-07-25T02:45:32.913Z,9.30
2018-07-25T02:48:02.524Z,9.53
2018-07-25T02:50:32.238Z,9.87
2018-07-25T02:53:01.644Z,9.50
2018-07-25T02:55:30.621Z,10.03
2018-07-25T02:58:01.011Z,10.10
2018-07-25T03:00:30.491Z,10.27
2018-07-25T03:03:01.700Z,9.50
2018-07-25T03:05:31.103Z,10.70
2018-07-25T03:08:01.535Z,9.53
2018-07-25T03:10:32.270Z,9.53
2018-07-25T03:13:06.748Z,9.40
2018-07-25T03:15:37.930Z,9.38
2018-07-25T03:18:09.021Z,10.43
2018-07-25T03:20:39.198Z,9.23
2018-07-25T03:23:13.723Z,10.23
2018-07-25T03:25:44.853Z,10.20
2018-07-25T03:28:15.397Z,9.87
2018-07-25T03:33:27.321Z,9.40
2018-07-25T03:36:00.365Z,10.30
2018-07-25T03:38:31.539Z,10.27
2018-07-25T03:41:03.883Z,11.73
2018-07-25T03:43:38.488Z,11.17
2018-07-25T03:46:09.686Z,11.30
2018-07-25T03:48:41.034Z,10.53
2018-07-25T03:51:13.319Z,9.83
2018-07-25T03:53:42.274Z,9.83
2018-07-25T03:56:10.744Z,9.43
2018-07-25T03:58:39.164Z,9.60
2018-07-25T04:01:07.690Z,9.50
2018-07-25T04:03:36.077Z,10.23
2018-07-25T04:06:04.816Z,9.67
2018-07-25T04:08:33.593Z,10.43
2018-07-25T04:11:02.551Z,10.10
2018-07-25T04:13:31.186Z,10.10
2018-07-25T04:15:59.719Z,10.17
2018-07-25T04:18:28.420Z,10.17
2018-07-25T04:20:59.860Z,9.40
2018-07-25T04:23:29.468Z,9.23
2018-07-25T04:25:57.808Z,9.80
2018-07-25T04:28:26.192Z,9.50
2018-07-25T04:30:55.147Z,9.50
2018-07-25T04:33:23.614Z,9.40
2018-07-25T04:35:51.996Z,9.50
2018-07-25T04:38:20.703Z,9.80
2018-07-25T04:40:49.191Z,9.03
2018-07-25T04:43:17.643Z,9.57
2018-07-25T04:45:45.785Z,9.43
2018-07-25T04:48:14.153Z,9.53
2018-07-25T04:50:42.719Z,9.20
2018-07-25T04:53:11.151Z,10.47
2018-07-25T04:55:39.606Z,8.53
2018-07-25T04:58:07.977Z,9.07
2018-07-25T05:00:36.622Z,9.30
2018-07-25T05:03:05.055Z,9.83
2018-07-25T05:05:33.691Z,9.37
2018-07-25T05:08:03.405Z,8.50
2018-07-25T05:10:31.842Z,8.73
2018-07-25T05:13:00.707Z,8.83
2018-07-25T05:15:29.149Z,8.70
2018-07-25T05:17:57.670Z,8.37
2018-07-25T05:20:26.190Z,8.07
2018-07-25T05:22:54.837Z,9.10
2018-07-25T05:25:23.275Z,8.40
2018-07-25T05:27:51.885Z,9.77
2018-07-25T05:30:33.763Z,10.03
2018-07-25T05:33:24.971Z,10.10
2018-07-25T05:35:53.418Z,11.03
2018-07-25T05:38:21.760Z,9.93
2018-07-25T05:40:50.169Z,10.80
2018-07-25T05:43:18.683Z,9.70
2018-07-25T05:45:47.070Z,8.83
2018-07-25T05:48:15.509Z,8.50
2018-07-25T05:50:44.817Z,7.87
2018-07-25T05:53:13.367Z,7.80
2018-07-25T05:55:41.787Z,8.07
2018-07-25T05:58:10.773Z,7.87
2018-07-25T06:00:42.813Z,7.93
2018-07-25T06:03:11.242Z,8.47
2018-07-25T06:05:44.980Z,7.93
2018-07-25T06:08:13.574Z,8.20
2018-07-25T06:11:05.277Z,7.63
2018-07-25T06:13:37.561Z,8.10
2018-07-25T06:16:09.356Z,8.17
2018-07-25T06:18:39.000Z,7.97
2018-07-25T06:21:07.899Z,7.58
2018-07-25T06:23:37.340Z,8.50
2018-07-25T06:26:06.621Z,8.33
2018-07-25T06:28:35.161Z,8.40
2018-07-25T06:31:04.437Z,9.33
2018-07-25T06:33:38.614Z,8.03
2018-07-25T06:36:07.204Z,7.90
2018-07-25T06:38:36.272Z,7.30
2018-07-25T06:41:04.675Z,7.13
2018-07-25T06:43:33.712Z,8.67
2018-07-25T06:46:02.586Z,7.40
2018-07-25T06:48:37.182Z,7.47
2018-07-25T06:51:06.440Z,8.43
2018-07-25T06:53:35.096Z,7.60
2018-07-25T06:56:04.086Z,7.55
2018-07-25T06:58:33.728Z,7.37
2018-07-25T07:01:02.873Z,7.67
2018-07-25T07:03:31.304Z,7.53
2018-07-25T07:06:00.853Z,7.03
2018-07-25T07:08:29.499Z,6.70
2018-07-25T07:10:58.260Z,7.90
2018-07-25T07:13:27.237Z,7.10
2018-07-25T07:15:55.977Z,7.43
2018-07-25T07:18:24.543Z,6.80
2018-07-25T07:20:55.361Z,6.97
2018-07-25T07:23:24.000Z,6.83
2018-07-25T07:25:52.687Z,7.27
2018-07-25T07:28:23.029Z,6.65
2018-07-25T07:30:51.711Z,7.00
2018-07-25T07:33:26.649Z,6.83
2018-07-25T07:35:55.606Z,7.85
2018-07-25T07:38:27.228Z,7.77
2018-07-25T07:43:54.400Z,8.33
2018-07-25T07:46:23.062Z,9.10
2018-07-25T07:48:52.342Z,8.43
2018-07-25T07:51:25.072Z,7.92
2018-07-25T07:53:54.000Z,7.33
2018-07-25T07:56:22.880Z,6.95
2018-07-25T07:58:51.806Z,7.15
2018-07-25T08:01:21.488Z,7.33
2018-07-25T08:03:50.161Z,7.03
2018-07-25T08:06:19.099Z,6.97
2018-07-25T08:08:57.013Z,6.70
2018-07-25T08:11:25.978Z,7.17
2018-07-25T08:13:58.373Z,6.70
2018-07-25T08:16:58.334Z,7.40
2018-07-25T08:32:17.655Z,7.58
2018-07-25T08:34:46.330Z,7.80
2018-07-25T08:37:15.312Z,7.93
2018-07-25T08:39:46.075Z,7.17
2018-07-25T08:42:15.101Z,7.83
2018-07-25T08:44:44.614Z,7.17
2018-07-25T08:47:13.475Z,7.43
2018-07-25T08:49:42.805Z,7.87
2018-07-25T08:52:12.988Z,7.78
2018-07-25T08:54:43.901Z,7.27
2018-07-25T08:57:13.937Z,7.80
2018-07-25T09:00:01.957Z,7.40
2018-07-25T09:05:42.565Z,7.10
2018-07-25T09:08:11.618Z,6.60
2018-07-25T09:10:42.514Z,7.03
2018-07-25T09:13:31.086Z,6.93
2018-07-25T09:16:00.039Z,7.40
2018-07-25T09:18:33.024Z,7.72
2018-07-25T09:21:05.614Z,7.00
2018-07-25T09:23:43.299Z,7.10
2018-07-25T09:26:33.610Z,7.27
2018-07-25T09:29:06.162Z,7.47
2018-07-25T09:31:39.540Z,8.13
2018-07-25T09:34:10.327Z,7.40
2018-07-25T09:36:44.157Z,6.97
2018-07-25T09:39:19.958Z,7.17
2018-07-25T09:41:50.740Z,7.58
2018-07-25T09:44:21.172Z,7.13
2018-07-25T09:46:53.396Z,7.70
2018-07-25T09:49:22.997Z,7.57
2018-07-25T09:51:51.920Z,8.23
2018-07-25T09:54:22.027Z,8.03
2018-07-25T09:56:55.433Z,7.60
2018-07-25T09:59:24.196Z,7.27
2018-07-25T10:01:54.374Z,6.80
2018-07-25T10:04:23.307Z,7.33
2018-07-25T10:06:52.478Z,7.17
2018-07-25T10:09:23.168Z,7.25
2018-07-25T10:11:55.251Z,6.62
2018-07-25T10:14:26.823Z,6.83
2018-07-25T10:16:58.597Z,10.20
2018-07-25T10:19:27.651Z,12.60
2018-07-25T10:21:56.521Z,6.90
2018-07-25T10:24:26.876Z,6.13
2018-07-25T10:26:56.028Z,6.17
2018-07-25T10:29:26.628Z,7.95
2018-07-25T10:31:58.227Z,7.30
2018-07-25T10:34:26.966Z,6.90
2018-07-25T10:36:56.946Z,6.57
2018-07-25T10:39:28.918Z,7.42
2018-07-25T10:41:59.344Z,7.42
2018-07-25T10:44:30.354Z,7.30
2018-07-25T10:46:59.964Z,6.53
2018-07-25T10:49:28.970Z,6.20
2018-07-25T10:51:58.134Z,6.00
2018-07-25T10:54:26.802Z,6.27
2018-07-25T10:56:56.836Z,6.67
2018-07-25T10:59:29.960Z,5.53
2018-07-25T11:01:59.857Z,5.37
2018-07-25T11:04:30.001Z,5.08
2018-07-25T11:06:58.693Z,5.57
2018-07-25T11:09:27.910Z,5.95
2018-07-25T11:11:57.058Z,6.97
2018-07-25T11:14:26.570Z,5.92
2018-07-25T11:16:55.538Z,5.60
2018-07-25T11:19:28.755Z,5.77
2018-07-25T11:21:57.685Z,5.53
2018-07-25T11:24:29.691Z,5.33
2018-07-25T11:26:59.611Z,5.33
2018-07-25T11:29:29.725Z,4.97
2018-07-25T11:32:04.580Z,5.57
2018-07-25T11:34:33.886Z,6.10
2018-07-25T11:37:03.898Z,5.47
2018-07-25T11:39:32.545Z,5.90
2018-07-25T11:42:03.302Z,5.75
2018-07-25T11:44:32.472Z,5.00
2018-07-25T11:47:06.921Z,5.37
2018-07-25T11:49:40.503Z,5.97
2018-07-25T11:52:11.774Z,5.03
2018-07-25T11:54:48.614Z,4.83
2018-07-25T11:57:26.294Z,4.80
2018-07-25T11:59:56.380Z,5.33
2018-07-25T12:02:25.918Z,4.90
2018-07-25T12:04:55.360Z,5.20
2018-07-25T12:07:24.805Z,5.13
2018-07-25T12:09:56.269Z,5.28
2018-07-25T12:12:33.121Z,5.10
2018-07-25T12:15:04.687Z,5.17
2018-07-25T12:17:34.339Z,4.67
2018-07-25T12:20:05.609Z,5.60
2018-07-25T12:22:35.995Z,4.97
2018-07-25T12:25:06.992Z,5.05
2018-07-25T12:27:38.448Z,4.60
2018-07-25T12:30:09.902Z,5.00
2018-07-25T12:32:39.005Z,4.50
2018-07-25T12:35:09.180Z,4.45
2018-07-25T12:37:39.230Z,4.03
2018-07-25T12:40:09.112Z,4.20
2018-07-25T12:42:39.851Z,4.47
2018-07-25T12:45:09.405Z,3.70
2018-07-25T12:47:43.985Z,4.20
2018-07-25T12:50:13.592Z,4.50
2018-07-25T12:52:46.055Z,4.67
2018-07-25T12:55:19.251Z,4.70
2018-07-25T12:57:50.748Z,3.83
2018-07-25T13:00:20.949Z,3.95
2018-07-25T13:02:50.342Z,3.55
2018-07-25T13:05:24.669Z,3.57
2018-07-25T13:07:57.311Z,3.60
2018-07-25T13:10:28.138Z,4.40
2018-07-25T13:12:58.721Z,4.03
2018-07-25T13:15:31.749Z,4.12
2018-07-25T13:18:02.323Z,4.42
2018-07-25T13:20:32.757Z,3.90
2018-07-25T13:23:02.414Z,4.80
2018-07-25T13:25:32.061Z,4.53
